No.3kiyoumaru — JD3417 — position and weather

sailwx.info

Track history (hours):
 
Tides and Currents Weather Stations Pressure Air Temp Water Temp Dewpoint Dewpoint Depression Visibility Wind Speed Wind Dir Waves Ship Positions

No.3kiyoumaru

Last reported at 2018-Jul-13 23:02 UTC. Time now 2018-Jul-17 11:30 UTC.
Position N 35°30' E 139°44'.

Length 65 m.

Type: Ship. MMSI: 431004091.

Date/timePositionNaut miles runAvg speedWind from/ knotsBaromVisibWave heightAir tempDewpointWater temp
2018-Jul-13 23:02N 35°30' E 139°44'0 1.8
2018-Jul-13 22:53N 35°30' E 139°44'1 0.0
2018-Jul-13 04:22N 35°30' E 139°45'1 0.2
2018-Jul-13 00:58N 35°30' E 139°44'4 0.2
2018-Jul-12 02:19N 35°29' E 139°49'611.6
2018-Jul-12 01:46N 35°23' E 139°46'411.9
2018-Jul-12 01:27N 35°19' E 139°44'610.9
2018-Jul-12 00:53N 35°14' E 139°47'411.1
2018-Jul-12 00:30N 35°10' E 139°46'610.9
2018-Jul-11 23:59N 35°05' E 139°43'611.9
2018-Jul-11 23:28N 35°01' E 139°37'229 9.5
2018-Jul-10 23:19N 34°08' E 135°06'3 1.0
2018-Jul-10 20:09N 34°10' E 135°10'0 0.0
2018-Jul-10 19:45N 34°10' E 135°10'0 0.0
2018-Jul-10 19:30N 34°10' E 135°10'0 0.0
2018-Jul-10 17:36N 34°10' E 135°10'0 0.0
2018-Jul-10 17:30N 34°10' E 135°10'0 0.0
2018-Jul-10 16:54N 34°10' E 135°10'0 0.0
2018-Jul-10 11:54N 34°10' E 135°10'0 0.0
2018-Jul-10 10:33N 34°10' E 135°10'0 0.0
2018-Jul-10 09:24N 34°10' E 135°10'0 0.1
2018-Jul-10 08:51N 34°10' E 135°10'0 0.0
2018-Jul-10 08:27N 34°10' E 135°10'0 0.0
2018-Jul-10 07:00N 34°10' E 135°10'0 0.0
2018-Jul-10 06:30N 34°10' E 135°10'0 0.0
2018-Jul-10 04:51N 34°10' E 135°10'2 0.7
2018-Jul-10 01:50N 34°09' E 135°12'2 6.9
2018-Jul-10 01:30N 34°09' E 135°09'611.6
2018-Jul-10 00:58N 34°14' E 135°04'711.6
2018-Jul-10 00:24N 34°20' E 135°04'1211.8
2018-Jul-09 23:25N 34°32' E 135°04'27 0.6
2018-Jul-08 04:38N 34°28' E 134°31'2810.6
2018-Jul-08 02:00N 34°36' E 135°04'510.0
2018-Jul-08 01:30N 34°31' E 135°04'511.1
2018-Jul-08 01:00N 34°25' E 135°02'612.0
2018-Jul-08 00:30N 34°20' E 134°60'510.0
2018-Jul-07 23:58N 34°14' E 134°59'711.9
2018-Jul-07 23:24N 34°08' E 135°00'  
Track history (hours):
 
Tides and Currents Weather Stations Pressure Air Temp Water Temp Dewpoint Dewpoint Depression Visibility Wind Speed Wind Dir Waves Ship Positions

No.3kiyoumaru

Last reported at 2018-Jul-13 23:02 UTC. Time now 2018-Jul-17 11:30 UTC.
Position N 35°30' E 139°44'.

Length 65 m.

Type: Ship. MMSI: 431004091.

Date/timePositionNaut miles runAvg speedWind from/ knotsBaromVisibWave heightAir tempDewpointWater temp
2018-Jul-13 23:02N 35°30' E 139°44'0 1.8
2018-Jul-13 22:53N 35°30' E 139°44'1 0.0
2018-Jul-13 04:22N 35°30' E 139°45'1 0.2
2018-Jul-13 00:58N 35°30' E 139°44'4 0.2
2018-Jul-12 02:19N 35°29' E 139°49'611.6
2018-Jul-12 01:46N 35°23' E 139°46'411.9
2018-Jul-12 01:27N 35°19' E 139°44'610.9
2018-Jul-12 00:53N 35°14' E 139°47'411.1
2018-Jul-12 00:30N 35°10' E 139°46'610.9
2018-Jul-11 23:59N 35°05' E 139°43'611.9
2018-Jul-11 23:28N 35°01' E 139°37'229 9.5
2018-Jul-10 23:19N 34°08' E 135°06'3 1.0
2018-Jul-10 20:09N 34°10' E 135°10'0 0.0
2018-Jul-10 19:45N 34°10' E 135°10'0 0.0
2018-Jul-10 19:30N 34°10' E 135°10'0 0.0
2018-Jul-10 17:36N 34°10' E 135°10'0 0.0
2018-Jul-10 17:30N 34°10' E 135°10'0 0.0
2018-Jul-10 16:54N 34°10' E 135°10'0 0.0
2018-Jul-10 11:54N 34°10' E 135°10'0 0.0
2018-Jul-10 10:33N 34°10' E 135°10'0 0.0
2018-Jul-10 09:24N 34°10' E 135°10'0 0.1
2018-Jul-10 08:51N 34°10' E 135°10'0 0.0
2018-Jul-10 08:27N 34°10' E 135°10'0 0.0
2018-Jul-10 07:00N 34°10' E 135°10'0 0.0
2018-Jul-10 06:30N 34°10' E 135°10'0 0.0
2018-Jul-10 04:51N 34°10' E 135°10'2 0.7
2018-Jul-10 01:50N 34°09' E 135°12'2 6.9
2018-Jul-10 01:30N 34°09' E 135°09'611.6
2018-Jul-10 00:58N 34°14' E 135°04'711.6
2018-Jul-10 00:24N 34°20' E 135°04'1211.8
2018-Jul-09 23:25N 34°32' E 135°04'27 0.6
2018-Jul-08 04:38N 34°28' E 134°31'2810.6
2018-Jul-08 02:00N 34°36' E 135°04'510.0
2018-Jul-08 01:30N 34°31' E 135°04'511.1
2018-Jul-08 01:00N 34°25' E 135°02'612.0
2018-Jul-08 00:30N 34°20' E 134°60'510.0
2018-Jul-07 23:58N 34°14' E 134°59'711.9
2018-Jul-07 23:24N 34°08' E 135°00'  

Dump ship's entire track history